createdAt,value
2022-09-13T00:00:13.986Z,26.10
2022-09-13T00:03:19.969Z,28.45
2022-09-13T00:06:25.354Z,33.25
2022-09-13T00:09:18.578Z,34.78
2022-09-13T00:12:24.049Z,43.92
2022-09-13T00:15:30.151Z,51.65
2022-09-13T00:18:36.609Z,50.45
2022-09-13T00:21:42.969Z,71.02
2022-09-13T00:24:48.617Z,72.00
2022-09-13T00:27:54.523Z,95.77
2022-09-13T00:31:00.569Z,102.25
2022-09-13T00:34:05.737Z,97.67
2022-09-13T00:37:12.128Z,91.95
2022-09-13T00:40:17.885Z,94.95
2022-09-13T00:43:29.979Z,99.37
2022-09-13T00:46:57.610Z,98.50
2022-09-13T00:50:03.153Z,108.80
2022-09-13T00:53:23.176Z,108.17
2022-09-13T00:56:34.256Z,110.65
2022-09-13T00:59:52.710Z,94.17
2022-09-13T01:03:16.095Z,91.40
2022-09-13T01:06:27.737Z,92.78
2022-09-13T01:09:32.786Z,88.42
2022-09-13T01:13:14.435Z,82.45
2022-09-13T01:16:21.301Z,84.90
2022-09-13T01:19:28.949Z,78.92
2022-09-13T01:23:07.903Z,76.25
2022-09-13T01:26:40.620Z,78.87
2022-09-13T01:30:26.732Z,75.03
2022-09-13T01:33:54.703Z,78.65
2022-09-13T01:37:22.927Z,73.97
2022-09-13T01:40:40.078Z,61.25
2022-09-13T01:44:00.362Z,61.08
2022-09-13T01:47:18.540Z,70.30
2022-09-13T01:50:54.919Z,62.03
2022-09-13T01:54:32.958Z,69.25
2022-09-13T01:57:51.972Z,63.90
2022-09-13T02:01:33.920Z,68.37
2022-09-13T02:04:43.974Z,67.22
2022-09-13T02:07:56.496Z,61.77
2022-09-13T02:11:14.616Z,63.68
2022-09-13T02:14:31.323Z,59.00
2022-09-13T02:17:39.749Z,59.03
2022-09-13T02:20:50.133Z,57.93
2022-09-13T02:23:59.368Z,58.85
2022-09-13T02:27:06.510Z,61.40
2022-09-13T02:30:08.766Z,50.43
2022-09-13T02:33:15.570Z,60.35
2022-09-13T02:36:13.985Z,69.27
2022-09-13T02:39:13.061Z,52.50
2022-09-13T02:42:31.608Z,72.53
2022-09-13T02:45:38.200Z,50.75
2022-09-13T02:48:57.486Z,64.90
2022-09-13T02:52:17.008Z,72.97
2022-09-13T02:55:40.567Z,66.67
2022-09-13T02:58:50.657Z,69.50
2022-09-13T03:01:58.505Z,64.15
2022-09-13T03:05:05.986Z,77.55
2022-09-13T03:08:12.941Z,75.10
2022-09-13T03:11:51.958Z,83.85
2022-09-13T03:15:38.363Z,89.30
2022-09-13T03:19:08.699Z,65.62
2022-09-13T03:22:21.853Z,62.17
2022-09-13T03:25:47.611Z,50.65
2022-09-13T03:29:19.799Z,53.73
2022-09-13T03:32:36.690Z,58.48
2022-09-13T03:35:49.323Z,36.35
2022-09-13T03:39:31.099Z,37.90
2022-09-13T03:42:47.116Z,40.85
2022-09-13T03:45:58.925Z,42.23
2022-09-13T03:52:09.430Z,42.80
2022-09-13T03:55:15.181Z,28.83
2022-09-13T03:58:21.414Z,41.13
2022-09-13T04:01:26.336Z,49.23
2022-09-13T04:04:31.313Z,62.62
2022-09-13T04:07:38.759Z,58.50
2022-09-13T04:10:44.493Z,58.70
2022-09-13T04:13:51.641Z,57.90
2022-09-13T04:16:58.287Z,59.25
2022-09-13T04:20:03.214Z,62.40
2022-09-13T04:23:10.320Z,57.80
2022-09-13T04:26:19.919Z,45.43
2022-09-13T04:29:26.006Z,46.18
2022-09-13T04:32:31.609Z,44.15
2022-09-13T04:35:37.547Z,38.88
2022-09-13T04:38:44.317Z,31.85
2022-09-13T04:41:51.929Z,42.17
2022-09-13T04:44:57.310Z,42.48
2022-09-13T04:48:10.042Z,40.48
2022-09-13T04:51:21.387Z,44.63
2022-09-13T04:54:28.608Z,48.08
2022-09-13T04:57:29.414Z,53.28
2022-09-13T05:00:23.006Z,46.95
2022-09-13T05:03:28.776Z,45.88
2022-09-13T05:06:36.438Z,43.98
2022-09-13T05:09:42.203Z,41.05
2022-09-13T05:12:49.123Z,36.85
2022-09-13T05:15:55.706Z,31.93
2022-09-13T05:19:04.374Z,31.40
2022-09-13T05:22:11.814Z,32.65
2022-09-13T05:25:21.088Z,34.35
2022-09-13T05:28:25.711Z,34.38
2022-09-13T05:31:37.567Z,29.70
2022-09-13T05:34:43.023Z,31.77
2022-09-13T05:37:49.151Z,29.02
2022-09-13T05:40:54.894Z,29.63
2022-09-13T05:44:10.324Z,32.73
2022-09-13T05:47:08.110Z,25.40
2022-09-13T05:50:27.495Z,28.75
2022-09-13T05:53:20.509Z,29.02
2022-09-13T05:56:29.352Z,27.60
2022-09-13T05:59:34.386Z,28.00
2022-09-13T06:02:39.661Z,29.72
2022-09-13T06:05:45.446Z,29.25
2022-09-13T06:08:51.345Z,27.13
2022-09-13T06:11:57.764Z,27.77
2022-09-13T06:15:04.204Z,23.35
2022-09-13T06:18:12.066Z,23.47
2022-09-13T06:21:29.099Z,23.70
2022-09-13T06:24:33.600Z,23.02
2022-09-13T06:27:39.604Z,16.42
2022-09-13T06:30:44.353Z,21.27
2022-09-13T06:33:51.397Z,17.95
2022-09-13T06:37:00.985Z,19.40
2022-09-13T06:40:08.778Z,19.60
2022-09-13T06:43:14.193Z,20.72
2022-09-13T06:46:26.875Z,23.15
2022-09-13T06:49:33.300Z,18.82
2022-09-13T06:52:39.823Z,21.33
2022-09-13T06:55:45.003Z,17.35
2022-09-13T06:58:51.100Z,22.77
2022-09-13T07:01:58.361Z,20.30
2022-09-13T07:05:03.295Z,18.80
2022-09-13T07:08:09.044Z,17.05
2022-09-13T07:11:16.482Z,17.25
2022-09-13T07:14:22.215Z,15.25
2022-09-13T07:17:31.184Z,18.80
2022-09-13T07:20:33.379Z,17.98
2022-09-13T07:23:38.843Z,14.93
2022-09-13T07:26:43.887Z,15.80
2022-09-13T07:29:50.351Z,14.95
2022-09-13T07:32:58.009Z,15.25
2022-09-13T07:36:10.913Z,13.05
2022-09-13T07:39:22.420Z,13.00
2022-09-13T07:42:28.568Z,11.83
2022-09-13T07:45:40.759Z,15.35
2022-09-13T07:48:50.075Z,9.75
2022-09-13T07:51:58.684Z,9.70
2022-09-13T07:55:05.072Z,11.57
2022-09-13T07:58:12.368Z,13.55
2022-09-13T08:01:37.508Z,12.68
2022-09-13T08:04:46.273Z,11.95
2022-09-13T08:07:54.481Z,9.78
2022-09-13T08:10:59.982Z,8.65
2022-09-13T08:14:05.329Z,11.97
2022-09-13T08:17:11.410Z,8.65
2022-09-13T08:20:16.599Z,8.93
2022-09-13T08:23:22.182Z,9.78
2022-09-13T08:26:28.913Z,13.45
2022-09-13T08:29:33.640Z,9.00
2022-09-13T08:32:38.603Z,9.05
2022-09-13T08:35:45.322Z,9.58
2022-09-13T08:38:51.394Z,8.45
2022-09-13T08:42:06.939Z,10.32
2022-09-13T08:45:13.795Z,7.97
2022-09-13T08:48:22.449Z,9.60
2022-09-13T08:51:44.916Z,10.50
2022-09-13T08:54:52.040Z,6.75
2022-09-13T08:58:20.950Z,7.87
2022-09-13T09:01:46.056Z,7.40
2022-09-13T09:05:02.180Z,8.88
2022-09-13T09:08:23.589Z,7.62
2022-09-13T09:12:07.404Z,10.05
2022-09-13T09:15:13.400Z,8.83
2022-09-13T09:18:37.272Z,7.92
2022-09-13T09:21:42.781Z,8.25
2022-09-13T09:24:50.481Z,10.48
2022-09-13T09:27:57.869Z,6.42
2022-09-13T09:31:25.790Z,5.12
2022-09-13T09:34:59.635Z,5.97
2022-09-13T09:38:40.293Z,10.25
2022-09-13T09:41:48.954Z,11.45
2022-09-13T09:44:56.340Z,7.85
2022-09-13T09:48:08.354Z,9.90
2022-09-13T09:51:14.817Z,10.10
2022-09-13T09:54:20.030Z,10.85
2022-09-13T09:57:27.250Z,8.73
2022-09-13T10:00:36.598Z,8.73
2022-09-13T10:03:48.121Z,8.28
2022-09-13T10:06:59.310Z,7.85
2022-09-13T10:10:18.795Z,10.53
2022-09-13T10:13:34.526Z,7.70
2022-09-13T10:16:45.437Z,7.12
2022-09-13T10:19:53.567Z,8.80
2022-09-13T10:22:59.396Z,10.43
2022-09-13T10:26:07.913Z,6.78
2022-09-13T10:29:22.672Z,9.95
2022-09-13T10:32:27.826Z,7.53
2022-09-13T10:35:33.357Z,6.53
2022-09-13T10:38:55.613Z,7.58
2022-09-13T10:42:12.425Z,7.78
2022-09-13T10:45:21.799Z,7.20
2022-09-13T10:48:31.659Z,8.08
2022-09-13T10:51:47.818Z,8.00
2022-09-13T10:54:54.947Z,6.28
2022-09-13T10:58:09.967Z,7.45
2022-09-13T11:01:40.885Z,4.53
2022-09-13T11:05:05.164Z,3.00
2022-09-13T11:08:41.568Z,4.53
2022-09-13T11:12:11.009Z,3.67
2022-09-13T11:15:59.967Z,11.43
2022-09-13T11:19:33.689Z,4.00
2022-09-13T11:23:05.239Z,5.75
2022-09-13T11:26:22.538Z,3.92
2022-09-13T11:30:01.973Z,4.92
2022-09-13T11:37:01.367Z,5.03
2022-09-13T11:40:34.962Z,6.12
2022-09-13T11:44:01.324Z,3.65
2022-09-13T11:47:48.283Z,3.90
2022-09-13T11:51:05.712Z,5.50
2022-09-13T11:54:34.924Z,4.87
2022-09-13T11:57:45.557Z,5.17
2022-09-13T12:07:30.228Z,7.05
2022-09-13T12:10:50.921Z,7.65
2022-09-13T12:14:05.322Z,5.72
2022-09-13T12:16:55.523Z,5.85
2022-09-13T12:19:54.107Z,6.45
2022-09-13T12:22:49.366Z,4.70
2022-09-13T12:26:32.712Z,5.25
2022-09-13T12:30:01.709Z,6.08
2022-09-13T12:33:00.391Z,7.83
2022-09-13T12:36:19.894Z,6.65
2022-09-13T12:40:00.386Z,6.35
2022-09-13T12:43:33.532Z,6.62
2022-09-13T12:46:58.453Z,8.18
2022-09-13T12:50:42.935Z,6.33
2022-09-13T12:54:03.091Z,8.68
2022-09-13T12:57:46.163Z,6.33
2022-09-13T13:01:21.870Z,7.10
2022-09-13T13:04:33.350Z,8.98
2022-09-13T13:07:39.145Z,5.87
2022-09-13T13:10:48.068Z,5.08
2022-09-13T13:14:00.841Z,5.50
2022-09-13T13:17:05.676Z,5.78
2022-09-13T13:20:10.575Z,5.22
2022-09-13T13:23:38.741Z,6.28
2022-09-13T13:27:11.365Z,5.97
2022-09-13T13:30:56.394Z,5.55
2022-09-13T13:34:06.947Z,9.10
2022-09-13T13:37:25.652Z,8.07
2022-09-13T13:40:39.418Z,4.95
2022-09-13T13:43:48.659Z,4.78
2022-09-13T13:46:55.010Z,3.90
2022-09-13T13:50:16.501Z,4.28
2022-09-13T13:53:42.266Z,7.62
2022-09-13T13:57:02.701Z,2.85
2022-09-13T14:00:20.730Z,3.87
2022-09-13T14:04:00.031Z,4.65
2022-09-13T14:07:54.224Z,5.50
2022-09-13T14:11:13.634Z,3.20
2022-09-13T14:14:40.494Z,3.77
2022-09-13T14:18:08.989Z,3.72
2022-09-13T14:21:17.103Z,3.90
2022-09-13T14:24:35.298Z,4.55
2022-09-13T14:27:51.433Z,5.92
2022-09-13T14:30:56.880Z,5.67
2022-09-13T14:34:02.916Z,5.72
2022-09-13T14:37:13.663Z,3.08
2022-09-13T14:40:43.893Z,3.47
2022-09-13T14:43:58.124Z,5.70
2022-09-13T14:47:13.238Z,3.00
2022-09-13T14:50:39.993Z,5.87
2022-09-13T14:53:57.200Z,5.72
2022-09-13T14:57:08.849Z,10.38
2022-09-13T15:00:18.646Z,5.05
2022-09-13T15:03:30.930Z,6.92
2022-09-13T15:06:45.228Z,9.90
2022-09-13T15:09:50.405Z,6.35
2022-09-13T15:13:23.290Z,10.85
2022-09-13T15:16:44.344Z,6.65
2022-09-13T15:20:05.328Z,7.12
2022-09-13T15:23:09.890Z,11.90
2022-09-13T15:26:25.733Z,6.45
2022-09-13T15:29:33.633Z,5.28
2022-09-13T15:32:56.263Z,8.35
2022-09-13T15:36:08.618Z,5.58
2022-09-13T15:39:30.170Z,6.03
2022-09-13T15:42:36.569Z,5.00
2022-09-13T15:45:42.176Z,5.75
2022-09-13T15:48:52.663Z,6.60
2022-09-13T15:55:10.660Z,9.00
2022-09-13T15:58:22.627Z,6.17
2022-09-13T16:01:31.022Z,6.25
2022-09-13T16:04:36.737Z,5.95
2022-09-13T16:07:43.130Z,6.20
2022-09-13T16:10:48.232Z,5.45
2022-09-13T16:13:53.852Z,5.05
2022-09-13T16:16:59.065Z,9.40
2022-09-13T16:20:04.247Z,8.30
2022-09-13T16:23:09.990Z,7.05
2022-09-13T16:26:14.718Z,6.72
2022-09-13T16:29:12.738Z,7.20
2022-09-13T16:32:18.927Z,7.45
2022-09-13T16:35:25.553Z,7.60
2022-09-13T16:38:30.687Z,12.45
2022-09-13T16:41:38.766Z,7.30
2022-09-13T16:44:45.441Z,6.00
2022-09-13T16:47:50.543Z,6.40
2022-09-13T16:50:57.076Z,6.78
2022-09-13T16:54:03.502Z,5.78
2022-09-13T16:57:10.684Z,5.40
2022-09-13T17:00:18.922Z,5.95
2022-09-13T17:03:24.482Z,5.42
2022-09-13T17:06:32.414Z,4.70
2022-09-13T17:09:37.891Z,4.53
2022-09-13T17:12:44.434Z,7.90
2022-09-13T17:15:56.575Z,4.67
2022-09-13T17:19:01.390Z,4.03
2022-09-13T17:22:06.881Z,4.25
2022-09-13T17:25:12.891Z,5.12
2022-09-13T17:28:19.342Z,3.98
2022-09-13T17:31:25.771Z,5.22
2022-09-13T17:34:31.680Z,8.85
2022-09-13T17:37:37.902Z,4.40
2022-09-13T17:40:44.535Z,4.40
2022-09-13T17:43:51.226Z,6.67
2022-09-13T17:46:57.679Z,4.40
2022-09-13T17:50:03.490Z,6.35
2022-09-13T17:53:11.108Z,3.72
2022-09-13T17:56:17.317Z,4.70
2022-09-13T17:59:27.817Z,6.10
2022-09-13T18:02:35.328Z,4.50
2022-09-13T18:05:41.889Z,5.40
2022-09-13T18:08:49.032Z,5.05
2022-09-13T18:11:55.270Z,5.12
2022-09-13T18:15:01.018Z,5.00
2022-09-13T18:18:07.579Z,4.83
2022-09-13T18:21:14.026Z,6.78
2022-09-13T18:24:19.821Z,4.70
2022-09-13T18:27:26.672Z,7.22
2022-09-13T18:30:32.060Z,4.97
2022-09-13T18:33:37.678Z,6.72
2022-09-13T18:36:44.493Z,6.25
2022-09-13T18:39:50.535Z,8.25
2022-09-13T18:42:55.790Z,5.15
2022-09-13T18:46:11.949Z,4.80
2022-09-13T18:49:17.160Z,5.92
2022-09-13T18:52:23.240Z,5.75
2022-09-13T18:55:28.768Z,6.05
2022-09-13T18:58:27.936Z,10.35
2022-09-13T19:01:39.271Z,6.85
2022-09-13T19:04:44.934Z,5.35
2022-09-13T19:07:50.553Z,9.25
2022-09-13T19:10:56.739Z,5.67
2022-09-13T19:14:03.104Z,9.15
2022-09-13T19:17:11.687Z,6.37
2022-09-13T19:20:17.297Z,7.03
2022-09-13T19:23:33.783Z,6.90
2022-09-13T19:26:37.750Z,6.67
2022-09-13T19:29:42.959Z,6.62
2022-09-13T19:32:48.740Z,8.03
2022-09-13T19:35:55.451Z,6.87
2022-09-13T19:39:00.928Z,8.95
2022-09-13T19:42:07.593Z,8.43
2022-09-13T19:45:13.446Z,11.88
2022-09-13T19:48:38.077Z,7.05
2022-09-13T19:51:27.919Z,7.08
2022-09-13T19:54:34.277Z,7.60
2022-09-13T19:57:44.336Z,8.65
2022-09-13T20:00:46.815Z,8.55
2022-09-13T20:03:53.118Z,8.53
2022-09-13T20:07:06.817Z,8.58
2022-09-13T20:10:11.495Z,9.43
2022-09-13T20:13:18.608Z,14.65
2022-09-13T20:16:32.184Z,9.20
2022-09-13T20:19:43.781Z,8.15
2022-09-13T20:22:46.948Z,8.05
2022-09-13T20:25:53.439Z,6.83
2022-09-13T20:28:59.990Z,11.63
2022-09-13T20:32:06.872Z,6.92
2022-09-13T20:35:12.712Z,7.05
2022-09-13T20:38:18.093Z,7.00
2022-09-13T20:41:26.784Z,6.75
2022-09-13T20:44:32.140Z,6.40
2022-09-13T20:47:38.428Z,9.53
2022-09-13T20:50:45.539Z,8.65
2022-09-13T20:53:51.879Z,9.95
2022-09-13T20:56:57.700Z,11.05
2022-09-13T20:59:57.645Z,10.70
2022-09-13T21:03:03.401Z,10.45
2022-09-13T21:06:09.431Z,11.03
2022-09-13T21:09:15.427Z,10.82
2022-09-13T21:12:23.065Z,13.05
2022-09-13T21:15:29.653Z,13.78
2022-09-13T21:18:37.688Z,14.13
2022-09-13T21:21:47.346Z,11.48
2022-09-13T21:24:52.898Z,14.98
2022-09-13T21:27:59.940Z,8.20
2022-09-13T21:31:16.099Z,7.58
2022-09-13T21:34:31.119Z,7.03
2022-09-13T21:37:37.100Z,7.37
2022-09-13T21:40:43.148Z,8.83
2022-09-13T21:43:48.661Z,8.38
2022-09-13T21:46:54.951Z,9.80
2022-09-13T21:49:59.676Z,13.38
2022-09-13T21:53:06.603Z,15.40
2022-09-13T21:56:16.531Z,16.75
2022-09-13T21:59:30.282Z,16.37
2022-09-13T22:02:36.033Z,17.80
2022-09-13T22:05:41.702Z,18.32
2022-09-13T22:08:53.874Z,19.75
2022-09-13T22:12:01.684Z,18.62
2022-09-13T22:15:07.836Z,29.98
2022-09-13T22:18:13.662Z,21.17
2022-09-13T22:21:25.453Z,25.37
2022-09-13T22:24:34.138Z,25.55
2022-09-13T22:27:39.393Z,27.52
2022-09-13T22:30:45.619Z,27.05
2022-09-13T22:33:51.218Z,24.75
2022-09-13T22:36:57.127Z,23.70
2022-09-13T22:40:04.927Z,22.95
2022-09-13T22:43:11.532Z,23.95
2022-09-13T22:46:33.817Z,22.45
2022-09-13T22:49:39.010Z,30.97
2022-09-13T22:52:44.964Z,29.00
2022-09-13T22:55:50.496Z,28.20
2022-09-13T22:58:56.107Z,27.20
2022-09-13T23:02:02.763Z,38.30
2022-09-13T23:05:07.594Z,30.05
2022-09-13T23:08:13.493Z,30.23
2022-09-13T23:11:37.240Z,26.45
2022-09-13T23:14:43.211Z,32.08
2022-09-13T23:17:48.806Z,34.15
2022-09-13T23:20:55.388Z,32.93
2022-09-13T23:24:00.647Z,36.45
2022-09-13T23:27:09.104Z,32.80
2022-09-13T23:30:14.459Z,40.65
2022-09-13T23:33:21.119Z,37.08
2022-09-13T23:36:29.283Z,29.12
2022-09-13T23:39:28.618Z,23.27
2022-09-13T23:42:34.701Z,27.87
2022-09-13T23:45:39.670Z,25.37
2022-09-13T23:48:44.751Z,21.75
2022-09-13T23:51:50.060Z,19.55
2022-09-13T23:54:55.464Z,13.22
2022-09-13T23:58:00.761Z,15.25
